Have a Safe July 4th! 

Flight Track Log - Related Links

Times and Time Zones

All times are in EDT time to prevent confusion due to time zone crossing. See the N250S flight status page for this flight to view local times or setup timezone preferences in your user account.

Time Position Orientation Groundspeed Altitude Reporting Facility
EDT Latitude Longitude Course Direction KTS MPH feet Rate Location/Type
Sun 01:21:47 PM 30.5031 -81.6992 341° North 114 131 600  Level Jacksonville Center
Sun 01:22:36 PM 30.5200 -81.7256 307° West 146 168 1,300 978 Climbing Jacksonville Center
Sun 01:23:19 PM 30.5392 -81.7542 308° West 155 178 2,100 1,082 Climbing Jacksonville Center
Sun 01:23:37 PM 30.5517 -81.7683 316° Northwest 159 183 2,400 800 Climbing Jacksonville Center
Sun 01:24:19 PM 30.5792 -81.7825 336° Northwest 185 213 2,900 484 Climbing Jacksonville Center
Sun 01:24:39 PM 30.5981 -81.7944 331° Northwest 202 232 2,900 700 Level Jacksonville Center
Sun 01:25:19 PM 30.6314 -81.8086 340° North 195 224 3,600 1,258 Climbing Jacksonville Center
Sun 01:25:41 PM 30.6483 -81.8181 334° Northwest 176 203 4,200 1,200 Climbing Jacksonville Center
Sun 01:26:19 PM 30.6756 -81.8250 348° North 177 204 4,800 968 Climbing Jacksonville Center
Sun 01:26:43 PM 30.6986 -81.8369 336° Northwest 182 209 5,200 800 Climbing Jacksonville Center
Sun 01:27:00 PM 30.8216 -81.8386 341° North  Level FlightAware Approximate
Sun 01:27:19 PM 30.7258 -81.8439 348° North 187 215 5,600  Level Jacksonville Center
Sun 01:27:50 PM 30.7550 -81.8603 334° Northwest 192 221 6,000 700 Climbing Jacksonville Center
Sun 01:28:19 PM 30.7781 -81.8672 345° North 193 222 6,300 677 Climbing Jacksonville Center
Sun 01:28:52 PM 30.8053 -81.8839 332° Northwest 191 220 6,700 600 Climbing Jacksonville Center
Sun 01:29:19 PM 30.8264 -81.8911 344° North 193 222 6,900 552 Climbing Jacksonville Center
Sun 01:30:19 PM 30.8744 -81.9075 344° North 203 234 7,500 750 Climbing Jacksonville Center
Sun 01:31:19 PM 30.9289 -81.9214 348° North 198 228 8,400 750 Climbing Jacksonville Center
Sun 01:32:19 PM 30.9811 -81.9378 345° North 198 228 9,000 700 Climbing Jacksonville Center
Sun 01:33:19 PM 31.0356 -81.9542 346° North 198 228 9,800 750 Climbing Jacksonville Center
Sun 01:34:19 PM 31.0900 -81.9658 350° North 198 228 10,500 750 Climbing Jacksonville Center
Sun 01:35:19 PM 31.1506 -81.9678 358° North 203 234 11,300 800 Climbing Jacksonville Center
Sun 01:36:19 PM 31.2047 -81.9719 356° North 203 234 12,100 850 Climbing Jacksonville Center
Sun 01:37:19 PM 31.2653 -81.9689 North 198 228 13,000 800 Climbing Jacksonville Center
Sun 01:38:19 PM 31.3217 -81.9514 15° North 198 228 13,700 850 Climbing Jacksonville Center
Sun 01:39:19 PM 31.3864 -81.9386 10° North 198 228 14,700 850 Climbing Jacksonville Center
Sun 01:40:19 PM 31.4425 -81.9233 13° North 206 237 15,400 600 Climbing Jacksonville Center
Sun 01:41:19 PM 31.4947 -81.9156 North 212 244 15,900 650 Climbing Jacksonville Center
Sun 01:42:19 PM 31.5614 -81.8978 13° North 217 250 16,700 700 Climbing Jacksonville Center
Sun 01:43:19 PM 31.6156 -81.8875 North 217 250 17,300 600 Climbing Jacksonville Center
Sun 01:44:19 PM 31.6822 -81.8697 13° North 217 250 17,900 550 Climbing Jacksonville Center
Sun 01:45:19 PM 31.7428 -81.8567 10° North 217 250 18,400 550 Climbing Jacksonville Center
Sun 01:46:19 PM 31.7989 -81.8464 North 217 250 19,000 350 Climbing Jacksonville Center
Sun 01:47:19 PM 31.8719 -81.8283 12° North 232 267 19,100 50 Climbing Jacksonville Center
Sun 01:48:19 PM 31.9406 -81.8153 North 244 281 19,100 -50 Level Jacksonville Center
Sun 01:49:19 PM 31.9969 -81.8050 North 239 275 19,000 -50 Descending Jacksonville Center
Sun 01:50:19 PM 32.0636 -81.7919 North 219 252 19,000  Level Jacksonville Center
Sun 01:51:19 PM 32.1158 -81.7789 12° North 219 252 19,000  Level Jacksonville Center
Sun 01:52:19 PM 32.1803 -81.7683 North 219 252 19,000  Level Jacksonville Center
Sun 01:53:19 PM 32.2386 -81.7578 North 214 246 19,000  Level Jacksonville Center
Sun 01:54:19 PM 32.2908 -81.7475 North 214 246 19,000  Level Jacksonville Center
Sun 01:55:19 PM 32.3553 -81.7342 10° North 214 246 19,000  Level Jacksonville Center
Sun 01:56:19 PM 32.4117 -81.7211 11° North 214 246 19,000 50 Level Jacksonville Center
Sun 01:57:19 PM 32.4658 -81.7106 North 219 252 19,100 50 Climbing Jacksonville Center
Sun 01:58:19 PM 32.5325 -81.6975 North 219 252 19,100  Level Jacksonville Center
Sun 01:59:19 PM 32.5908 -81.6844 11° North 219 252 19,100 -50 Level Jacksonville Center
Sun 02:00:19 PM 32.6511 -81.6689 12° North 219 252 19,000  Descending Jacksonville Center
Sun 02:01:19 PM 32.7075 -81.6533 13° North 214 246 19,100  Climbing Jacksonville Center
Sun 02:02:19 PM 32.7678 -81.6375 12° North 214 246 19,000  Descending Jacksonville Center
Sun 02:03:19 PM 32.8283 -81.6244 10° North 220 253 19,100 50 Climbing Jacksonville Center
Sun 02:04:19 PM 32.8867 -81.6111 11° North 220 253 19,100  Level Jacksonville Center
Sun 02:05:19 PM 32.9431 -81.6153 356° North 215 247 19,100 -50 Level Jacksonville Center
Sun 02:06:19 PM 33.0014 -81.6169 359° North 209 241 19,000 -50 Descending Jacksonville Center
Sun 02:07:19 PM 33.0578 -81.6186 359° North 209 241 19,000 50 Level Jacksonville Center
Sun 02:08:19 PM 33.1164 -81.6228 357° North 204 235 19,100 50 Climbing Jacksonville Center
Sun 02:09:19 PM 33.1728 -81.6269 356° North 199 229 19,100  Level Jacksonville Center
Sun 02:10:19 PM 33.2311 -81.6311 357° North 199 229 19,100 -50 Level Jacksonville Center
Sun 02:11:19 PM 33.2856 -81.6328 359° North 199 229 19,000  Descending Jacksonville Center
Sun 02:12:19 PM 33.3439 -81.6369 357° North 199 229 19,100  Climbing Jacksonville Center
Sun 02:13:19 PM 33.3981 -81.6386 359° North 199 229 19,000  Descending Jacksonville Center
Sun 02:14:19 PM 33.4567 -81.6453 355° North 199 229 19,100  Climbing Jacksonville Center
Sun 02:15:19 PM 33.5111 -81.6469 359° North 199 229 19,000  Descending Jacksonville Center
Sun 02:16:19 PM 33.5653 -81.6514 356° North 199 229 19,100 50 Climbing Jacksonville Center
Sun 02:17:19 PM 33.6217 -81.6506 North 199 229 19,100  Level Jacksonville Center
Sun 02:18:19 PM 33.6781 -81.6547 356° North 199 229 19,100  Level Jacksonville Center
Sun 02:19:19 PM 33.7322 -81.6539 North 199 229 19,100  Level Jacksonville Center
Sun 02:20:19 PM 33.7867 -81.6581 356° North 199 229 19,100  Level Jacksonville Center
Sun 02:21:19 PM 33.8408 -81.6597 359° North 199 229 19,100  Level Jacksonville Center
Sun 02:22:19 PM 33.8972 -81.6592 360° North 199 229 19,100  Level Jacksonville Center
Sun 02:24:10 PM 33.9903 -81.6611 359° North 196 226 19,100  Level Atlanta Center
Sun 02:25:10 PM 34.0447 -81.6647 357° North 196 226 19,100 -50 Level Atlanta Center
Sun 02:26:10 PM 34.0989 -81.6656 359° North 196 226 19,000 -50 Descending Atlanta Center
Sun 02:27:10 PM 34.1533 -81.6717 355° North 196 226 19,000  Level Atlanta Center
Sun 02:28:10 PM 34.2078 -81.6753 357° North 196 226 19,000  Level Atlanta Center
Sun 02:29:10 PM 34.2619 -81.6736 North 196 226 19,000  Level Atlanta Center
Sun 02:30:10 PM 34.3247 -81.6769 357° North 196 226 19,000  Level Atlanta Center
Sun 02:31:10 PM 34.3811 -81.6828 355° North 196 226 19,000  Level Atlanta Center
Sun 02:32:10 PM 34.4353 -81.6839 359° North 196 226 19,000  Level Atlanta Center
Sun 02:33:10 PM 34.4961 -81.6897 355° North 201 231 19,000  Level Atlanta Center
Sun 02:34:10 PM 34.5525 -81.6983 353° North 201 231 19,000  Level Atlanta Center
Sun 02:35:10 PM 34.6089 -81.7017 357° North 201 231 19,000  Level Atlanta Center
Sun 02:36:10 PM 34.6656 -81.7178 347° North 201 231 19,000  Level Atlanta Center
Sun 02:37:10 PM 34.7200 -81.7289 350° North 201 231 19,000  Level Atlanta Center
Sun 02:38:10 PM 34.7744 -81.7350 355° North 201 231 19,000  Level Atlanta Center
Sun 02:39:10 PM 34.8328 -81.7386 357° North 201 231 19,000  Level Atlanta Center
Sun 02:40:10 PM 34.8892 -81.7419 357° North 201 231 19,000  Level Atlanta Center
Sun 02:41:10 PM 34.9478 -81.7431 359° North 201 231 19,000  Level Atlanta Center
Sun 02:42:10 PM 35.0064 -81.7514 353° North 201 231 19,000  Level Atlanta Center
Sun 02:43:10 PM 35.0606 -81.7475 North 201 231 19,000  Level Atlanta Center
Sun 02:44:10 PM 35.1189 -81.7508 357° North 201 231 19,000  Level Atlanta Center
Sun 02:45:10 PM 35.1753 -81.7494 North 196 226 19,000  Level Atlanta Center
Sun 02:46:10 PM 35.2358 -81.7528 357° North 201 231 19,000  Level Atlanta Center
Sun 02:47:10 PM 35.2944 -81.7536 359° North 201 231 19,000  Level Atlanta Center
Sun 02:48:10 PM 35.3550 -81.7597 355° North 206 237 19,000  Level Atlanta Center
Sun 02:49:10 PM 35.4153 -81.7453 11° North 212 244 19,000 50 Level Atlanta Center
Sun 02:50:10 PM 35.4794 -81.7308 10° North 217 250 19,100  Climbing Atlanta Center
Sun 02:51:10 PM 35.5400 -81.7214 North 217 250 19,000 -50 Descending Atlanta Center
Sun 02:52:10 PM 35.6022 -81.7069 11° North 217 250 19,000  Level Atlanta Center
Sun 02:53:10 PM 35.6603 -81.6950 North 217 250 19,000  Level Atlanta Center
Sun 02:54:10 PM 35.7186 -81.6856 North 217 250 19,000  Level Atlanta Center
Sun 02:55:10 PM 35.7769 -81.6789 North 217 250 19,000  Level Atlanta Center
Sun 02:56:10 PM 35.8314 -81.6875 353° North 210 242 19,000  Level Atlanta Center
Sun 02:57:10 PM 35.8878 -81.6908 357° North 205 236 19,000  Level Atlanta Center
Sun 02:58:10 PM 35.9442 -81.6969 355° North 200 230 19,000  Level Atlanta Center
Sun 02:59:10 PM 36.0006 -81.7056 353° North 200 230 19,000  Level Atlanta Center
Sun 03:00:10 PM 36.0569 -81.7117 355° North 200 230 19,000  Level Atlanta Center
Sun 03:01:10 PM 36.1136 -81.7178 355° North 200 230 19,000  Level Atlanta Center
Sun 03:02:10 PM 36.1700 -81.7264 353° North 200 230 19,000  Level Atlanta Center
Sun 03:03:10 PM 36.2264 -81.7325 355° North 200 230 19,000  Level Atlanta Center
Sun 03:04:10 PM 36.2850 -81.7386 355° North 200 230 19,000  Level Atlanta Center
Sun 03:05:10 PM 36.3433 -81.7447 355° North 200 230 19,000 50 Level Atlanta Center
Sun 03:06:10 PM 36.4019 -81.7481 357° North 200 230 19,100  Climbing Atlanta Center
Sun 03:07:10 PM 36.4583 -81.7544 355° North 200 230 19,000 -50 Descending Atlanta Center
Sun 03:08:10 PM 36.5147 -81.7606 355° North 200 230 19,000  Level Atlanta Center
Sun 03:09:10 PM 36.5731 -81.7639 357° North 200 230 19,000  Level Atlanta Center
Sun 03:10:10 PM 36.6339 -81.7700 355° North 200 230 19,000  Level Atlanta Center
Sun 03:11:10 PM 36.6922 -81.7736 357° North 205 236 19,000 50 Level Atlanta Center
Sun 03:12:10 PM 36.7486 -81.7772 357° North 205 236 19,100 37 Climbing Atlanta Center
Sun 03:13:51 PM 36.8431 -81.7853 356° North 210 242 19,100 -37 Level Indianapolis Center
Sun 03:14:53 PM 36.9008 -81.7892 357° North 210 242 19,000 -48 Descending Indianapolis Center
Sun 03:15:55 PM 36.9567 -81.7944 356° North 208 239 19,000  Level Indianapolis Center
Sun 03:16:57 PM 37.0247 -81.7981 358° North 207 238 19,000  Level Indianapolis Center
Sun 03:17:59 PM 37.0822 -81.8019 357° North 207 238 19,000  Level Indianapolis Center
Sun 03:19:01 PM 37.1403 -81.8056 357° North 207 238 19,000  Level Indianapolis Center
Sun 03:20:03 PM 37.1986 -81.8094 357° North 208 239 19,000  Level Indianapolis Center
Sun 03:21:05 PM 37.2564 -81.8161 355° North 208 239 19,000  Level Indianapolis Center
Sun 03:22:07 PM 37.3247 -81.8181 359° North 208 239 19,000  Level Indianapolis Center
Sun 03:23:09 PM 37.3828 -81.8231 356° North 208 239 19,000  Level Indianapolis Center
Sun 03:24:11 PM 37.4386 -81.8256 358° North 206 237 19,000  Level Indianapolis Center
Sun 03:25:13 PM 37.4939 -81.8331 354° North 202 232 19,000  Level Indianapolis Center
Sun 03:26:15 PM 37.5506 -81.8367 357° North 202 232 19,000  Level Indianapolis Center
Sun 03:27:17 PM 37.6069 -81.8431 355° North 202 232 19,000  Level Indianapolis Center
Sun 03:28:19 PM 37.6728 -81.8497 355° North 202 232 19,000  Level Indianapolis Center
Sun 03:29:21 PM 37.7294 -81.8553 356° North 203 234 19,000  Level Indianapolis Center
Sun 03:30:23 PM 37.7844 -81.8583 357° North 202 232 19,000  Level Indianapolis Center
Sun 03:31:25 PM 37.8400 -81.8631 356° North 200 230 19,000  Level Indianapolis Center
Sun 03:32:27 PM 37.8967 -81.8661 358° North 200 230 19,000  Level Indianapolis Center
Sun 03:33:29 PM 37.9525 -81.8714 356° North 201 231 19,000  Level Indianapolis Center
Sun 03:34:31 PM 38.0089 -81.8769 356° North 201 231 19,000  Level Indianapolis Center
Sun 03:35:33 PM 38.0761 -81.8819 357° North 201 231 19,000  Level Indianapolis Center
Sun 03:36:35 PM 38.1325 -81.8869 356° North 201 231 19,000  Level Indianapolis Center
Sun 03:37:38 PM 38.1883 -81.8922 356° North 201 231 19,000  Level Indianapolis Center
Sun 03:38:40 PM 38.2447 -81.8986 355° North 201 231 19,000  Level Indianapolis Center
Sun 03:39:42 PM 38.3011 -81.9014 358° North 201 231 19,000  Level Indianapolis Center
Sun 03:40:44 PM 38.3575 -81.9067 356° North 201 231 19,000  Level Indianapolis Center
Sun 03:41:46 PM 38.4139 -81.9114 356° North 201 231 19,000  Level Indianapolis Center
Sun 03:42:48 PM 38.4811 -81.9183 355° North 201 231 19,000  Level Indianapolis Center
Sun 03:43:50 PM 38.5378 -81.9203 358° North 201 231 19,000  Level Indianapolis Center
Sun 03:44:52 PM 38.5947 -81.9250 356° North 202 232 19,000  Level Indianapolis Center
Sun 03:45:54 PM 38.6517 -81.9264 359° North 202 232 19,000  Level Indianapolis Center
Sun 03:46:56 PM 38.7094 -81.9294 358° North 202 232 19,000  Level Indianapolis Center
Sun 03:47:58 PM 38.7672 -81.9331 357° North 203 234 19,000  Level Indianapolis Center
Sun 03:49:01 PM 38.8236 -81.9361 358° North 203 234 19,000  Level Indianapolis Center
Sun 03:50:03 PM 38.8808 -81.9431 355° North 203 234 19,000  Level Indianapolis Center
Sun 03:51:05 PM 38.9489 -81.9472 357° North 203 234 19,000  Level Indianapolis Center
Sun 03:52:07 PM 39.0039 -81.9544 354° North 202 232 19,000  Level Indianapolis Center
Sun 03:53:09 PM 39.0608 -81.9600 356° North 202 232 19,000  Level Indianapolis Center
Sun 03:54:11 PM 39.1172 -81.9669 355° North 202 232 19,000  Level Indianapolis Center
Sun 03:55:13 PM 39.1736 -81.9706 357° North 202 232 19,000  Level Indianapolis Center
Sun 03:56:15 PM 39.2297 -81.9758 356° North 202 232 19,000  Level Indianapolis Center
Sun 03:57:17 PM 39.2958 -81.9817 356° North 201 231 19,000  Level Indianapolis Center
Sun 03:58:19 PM 39.3514 -81.9881 355° North 201 231 19,000  Level Indianapolis Center
Sun 03:59:21 PM 39.4072 -81.9922 357° North 200 230 19,000  Level Indianapolis Center
Sun 04:00:23 PM 39.4614 -81.9972 356° North 200 230 19,000  Level Indianapolis Center
Sun 04:01:26 PM 39.5164 -82.0056 353° North 200 230 19,000  Level Indianapolis Center
Sun 04:02:28 PM 39.5722 -82.0086 358° North 199 229 19,000  Level Indianapolis Center
Sun 04:03:30 PM 39.6264 -82.0161 354° North 199 229 19,000  Level Indianapolis Center
Sun 04:04:32 PM 39.6919 -82.0214 356° North 199 229 19,000  Level Indianapolis Center
Sun 04:05:34 PM 39.7422 -82.0253 357° North 199 229 19,000  Level Indianapolis Center
Sun 04:06:36 PM 39.7958 -82.0317 355° North 198 228 19,000  Level Indianapolis Center
Sun 04:07:38 PM 39.8522 -82.0269 North 201 231 19,000  Level Indianapolis Center
Sun 04:08:40 PM 39.9231 -82.0006 16° North 217 250 19,000  Level Indianapolis Center
Sun 04:09:42 PM 39.9800 -81.9833 13° North 216 249 19,000  Level Indianapolis Center
Sun 04:10:44 PM 40.0361 -81.9622 16° North 215 247 19,000 -145 Level Indianapolis Center
Sun 04:11:46 PM 40.0936 -81.9478 11° North 212 244 18,700 -576 Descending Indianapolis Center
Sun 04:12:49 PM 40.1564 -81.9222 17° North 229 264 17,800 -960 Descending Indianapolis Center
Sun 04:13:51 PM 40.2328 -81.9000 13° North 235 270 16,700 -1,016 Descending Indianapolis Center
Sun 04:14:53 PM 40.2964 -81.8772 15° North 235 270 15,700 -1,016 Descending Indianapolis Center
Sun 04:15:55 PM 40.3619 -81.8586 12° North 236 272 14,600 -774 Descending Indianapolis Center
Sun 04:16:57 PM 40.4231 -81.8608 358° North 221 254 14,100 -242 Descending Indianapolis Center
Sun 04:17:59 PM 40.4750 -81.8744 349° North 195 224 14,100  Level Indianapolis Center
Sun 04:19:01 PM 40.5281 -81.8839 352° North 193 222 14,100 -435 Level Indianapolis Center
Sun 04:20:03 PM 40.5903 -81.9036 346° North 192 221 13,200 -871 Descending Indianapolis Center
Sun 04:21:05 PM 40.6486 -81.9172 350° North 205 236 12,300 -909 Descending Indianapolis Center
Sun 04:21:42 PM 40.6783 -81.9281 345° North 206 237 11,700 -923 Descending Cleveland Center
Sun 04:22:23 PM 40.7228 -81.9467 342° North 210 242 11,100 -774 Descending Cleveland Center
Sun 04:22:44 PM 40.7344 -81.9500 348° North 207 238 10,900 -885 Descending Cleveland Center
Sun 04:23:24 PM 40.7797 -81.9642 347° North 211 243 10,200 -1,065 Descending Cleveland Center
Sun 04:23:46 PM 40.8031 -81.9700 349° North 211 243 9,800 -800 Descending Cleveland Center
Sun 04:24:24 PM 40.8367 -81.9844 342° North 215 247 9,400 -774 Descending Cleveland Center
Sun 04:24:48 PM 40.8597 -81.9894 351° North 209 241 9,000 -393 Descending Cleveland Center
Sun 04:25:25 PM 40.8917 -82.0047 340° North 204 235 9,000 -95 Level Cleveland Center
Sun 04:25:51 PM 40.9122 -82.0128 344° North 198 228 8,900  Descending Cleveland Center
Sun 04:26:38 PM 40.9506 -82.0253 346° North 176 203 9,000  Climbing Cleveland Center
Sun 04:26:53 PM 40.9603 -82.0303 339° North 183 211 8,900 -1,100 Descending Cleveland Center
Sun 04:27:38 PM 40.9981 -82.0556 333° Northwest 194 223 7,900 -1,355 Descending Cleveland Center
Sun 04:27:55 PM 41.0092 -82.0597 344° North 190 219 7,500 -1,469 Descending Cleveland Center
Sun 04:28:27 PM 41.0433 -82.0878 328° Northwest 220 253 6,700 -1,258 Descending Cleveland Center
Sun 04:28:57 PM 41.0625 -82.0997 335° Northwest 211 243 6,200 -982 Descending Cleveland Center
Sun 04:29:22 PM 41.0864 -82.1200 327° Northwest 218 251 5,800 -774 Descending Cleveland Center
Sun 04:29:59 PM 41.1150 -82.1378 335° Northwest 211 243 5,400 -909 Descending Cleveland Center
Sun 04:30:28 PM 41.1481 -82.1581 335° Northwest 211 243 4,800 -1,065 Descending Cleveland Center
Sun 04:31:01 PM 41.1778 -82.1758 336° Northwest 211 243 4,300 -1,279 Descending Cleveland Center
Sun 04:31:29 PM 41.2014 -82.1919 333° Northwest 210 242 3,500 -1,355 Descending Cleveland Center
Sun 04:32:03 PM 41.2314 -82.2133 332° Northwest 211 243 2,900 -563 Descending Cleveland Center
Sun 04:33:05 PM 41.2853 -82.2497 333° Northwest 214 246 2,600 -194 Descending Cleveland Center
Sun 04:34:07 PM 41.3294 -82.2642 346° North 203 234 2,500 -242 Descending Cleveland Center
Sun 04:35:09 PM 41.3483 -82.2028 68° East 188 216 2,100 -145 Descending Cleveland Center
Sun 04:36:11 PM 41.3792 -82.1625 44° Northeast 166 191 2,200 -242 Climbing Cleveland Center
Sun 04:37:13 PM 41.3608 -82.1369 134° Southeast 137 158 1,600 -629 Descending Cleveland Center
Sun 04:38:15 PM 41.3456 -82.1775 243° Southwest 123 142 900 -677 Descending Cleveland Center

Login

Don't have an account? Register now (free) for customized features, flight alerts, and more!